NFTF/TBU METAR and TAF weather

Enter ICAO airport designator
Station Type Date Time Source
NFTF METAR 2019/08/24 17:00 UTC NOAA

NFTF 241700Z 20013G20KT 9999 FEW010 SCT016 BKN110 21/18 Q1014


Station Type Date Time Source
NFTF Decoded METAR 2019/08/24 17:00 UTC NOAA

Station name not available
Aug 24, 2019 - 01:00 PM EDT / 2019.08.24 1700 UTC
Wind: from the SSW (200 degrees) at 15 MPH (13 KT) gusting to 23 MPH (20 KT):0
Visibility: greater than 7 mile(s):0
Sky conditions: mostly cloudy
Temperature: 69 F (21 C)
Dew Point: 64 F (18 C)
Relative Humidity: 82%
Pressure (altimeter): 29.94 in. Hg (1014 hPa)
ob: NFTF 241700Z 20013G20KT 9999 FEW010 SCT016 BKN110 21/18 Q1014
cycle: 17

Station Type Date Time Source
NFTF TAF 2019/08/24 18:09 UTC NOAA

TAF TAF NFTF 241706Z 2418/2518 20012KT 9999 FEW010 SCT016 BKN100
FM242300 16015KT 9999 SCT017 SCT040

Example: see airport list